Goshen, MA (01032)

6:07 AM EDT on July 24, 2016 (GMT -0400)
George Propane Inc intersection route 9 and 112 | | Change Station

Elev 1460 ft 42.45 °N, 72.80 °W | Updated 16 minutes ago

Clear
Clear
63.1 °F
Feels Like 63.1 °F
N
3.0
Wind Variable Wind from SE
Gusts 8.0 mph

Today
High -- | Low -- °F
--% Chance of Precip.
Yesterday
High -- | Low -- °F
Precip. -- in
Pressure 29.94 in
Visibility 10.0 miles
Clouds Clear
Dew Point 60 °F
Humidity 91%
Rainfall 0.00 in
Snow Depth Not available.
5:36 AM 8:19 PM
Waning Gibbous, 77% visible
METAR KBAF 240953Z AUTO 05006KT 10SM CLR 18/15 A2995 RMK AO2 SLP138 T01780150 TSNO
Pressure 29.94 in
Visibility 10.0 miles
Clouds Clear
Dew Point 60 °F
Humidity 91%
Rainfall 0.00 in
Snow Depth Not available.
5:36 AM 8:19 PM
Waning Gibbous, 77% visible
METAR KBAF 240953Z AUTO 05006KT 10SM CLR 18/15 A2995 RMK AO2 SLP138 T01780150 TSNO

10-Day Weather Forecast

Almanac

Astronomy

Jul. 24, 2016 Rise Set
Actual Time
Civil Twilight
Nautical Twilight
Astronomical Twilight
Moon
Length of Visible Light
Length of Day
Tomorrow will be .
, % of the Moon is Illuminated

Today's Extremes

State Highs State Lows

Community

WunderPhotos

Upload Photos

1,927,040 photos uploaded!

WunderBlog® & News

Nearby

Air Quality

  Air Quality AQ Index Pollutant
Not available.

Snow Depth

Station Depth Elevation

Earthquake Activity

City Distance Mag. Time & Date
Minimum magnitude displayed is 2.5.

Coastal Water Temperatures

Place Temperature

Stations

Nearby Weather Stations

Station Location Temp. Windchill Dew Point Humidity Wind Precip. Elev Updated Type
                   

Watches & Warnings

There are currently no watches in effect.